createdAt,value
2019-02-25T00:00:20.521Z,17.87
2019-02-25T00:05:23.894Z,18.52
2019-02-25T00:10:26.845Z,21.02
2019-02-25T00:15:29.948Z,18.97
2019-02-25T00:20:32.929Z,18.82
2019-02-25T00:25:36.206Z,18.37
2019-02-25T00:30:39.507Z,20.08
2019-02-25T00:35:42.551Z,18.27
2019-02-25T00:40:45.516Z,21.25
2019-02-25T00:45:48.911Z,22.07
2019-02-25T00:50:51.981Z,18.42
2019-02-25T00:55:55.150Z,22.13
2019-02-25T01:00:58.390Z,17.07
2019-02-25T01:06:02.261Z,19.27
2019-02-25T01:11:05.214Z,22.65
2019-02-25T01:16:08.430Z,18.67
2019-02-25T01:21:11.417Z,20.12
2019-02-25T01:26:14.544Z,18.05
2019-02-25T01:31:17.524Z,18.07
2019-02-25T01:36:20.768Z,19.82
2019-02-25T01:41:23.688Z,21.20
2019-02-25T01:46:26.713Z,19.00
2019-02-25T01:51:29.693Z,20.67
2019-02-25T01:56:33.393Z,21.53
2019-02-25T02:01:36.499Z,22.35
2019-02-25T02:06:39.406Z,21.07
2019-02-25T02:11:42.524Z,19.60
2019-02-25T02:16:45.608Z,20.54
2019-02-25T02:21:48.714Z,21.42
2019-02-25T02:26:52.042Z,20.52
2019-02-25T02:31:55.348Z,19.87
2019-02-25T02:36:58.303Z,19.98
2019-02-25T02:42:21.632Z,20.37
2019-02-25T02:47:56.489Z,20.20
2019-02-25T02:52:59.514Z,21.23
2019-02-25T02:58:02.969Z,19.80
2019-02-25T03:03:06.161Z,20.45
2019-02-25T03:08:09.442Z,19.52
2019-02-25T03:13:12.552Z,20.52
2019-02-25T03:18:15.640Z,19.82
2019-02-25T03:23:18.923Z,20.15
2019-02-25T03:28:21.959Z,17.48
2019-02-25T03:33:25.295Z,17.52
2019-02-25T03:38:28.518Z,19.07
2019-02-25T03:43:31.637Z,18.27
2019-02-25T03:48:34.754Z,19.12
2019-02-25T03:53:37.922Z,18.52
2019-02-25T03:58:41.217Z,18.17
2019-02-25T04:03:44.744Z,18.07
2019-02-25T04:08:47.726Z,13.08
2019-02-25T04:13:50.701Z,17.32
2019-02-25T04:18:53.999Z,16.32
2019-02-25T04:23:57.074Z,19.30
2019-02-25T04:29:00.151Z,15.50
2019-02-25T04:34:03.296Z,16.87
2019-02-25T04:39:06.411Z,16.73
2019-02-25T04:44:09.433Z,17.73
2019-02-25T04:49:12.524Z,15.85
2019-02-25T04:54:15.623Z,17.30
2019-02-25T04:59:18.557Z,17.27
2019-02-25T05:04:21.941Z,17.87
2019-02-25T05:09:25.146Z,14.58
2019-02-25T05:14:28.150Z,14.85
2019-02-25T05:19:31.607Z,15.30
2019-02-25T05:24:34.637Z,14.85
2019-02-25T05:29:37.742Z,14.70
2019-02-25T05:34:40.757Z,14.18
2019-02-25T05:39:43.963Z,14.45
2019-02-25T05:44:47.087Z,11.75
2019-02-25T05:49:50.074Z,13.90
2019-02-25T05:54:53.056Z,13.30
2019-02-25T05:59:56.021Z,13.53
2019-02-25T06:04:59.070Z,13.38
2019-02-25T06:10:02.552Z,12.35
2019-02-25T06:15:06.998Z,15.83
2019-02-25T06:20:11.172Z,15.58
2019-02-25T06:25:14.334Z,13.95
2019-02-25T06:30:17.430Z,14.38
2019-02-25T06:35:20.470Z,11.03
2019-02-25T06:40:23.481Z,14.80
2019-02-25T06:45:26.762Z,16.05
2019-02-25T06:50:29.839Z,15.50
2019-02-25T06:55:32.873Z,15.65
2019-02-25T07:00:36.189Z,15.43
2019-02-25T07:06:04.735Z,14.40
2019-02-25T07:11:39.305Z,16.05
2019-02-25T07:16:52.261Z,14.40
2019-02-25T07:22:07.972Z,13.30
2019-02-25T07:27:29.612Z,12.23
2019-02-25T07:33:01.344Z,14.75
2019-02-25T07:38:23.957Z,14.70
2019-02-25T07:43:55.334Z,13.60
2019-02-25T07:49:33.047Z,16.52
2019-02-25T07:54:55.575Z,15.40
2019-02-25T08:00:08.631Z,13.98
2019-02-25T08:05:36.986Z,10.65
2019-02-25T08:10:59.880Z,14.25
2019-02-25T08:16:22.598Z,11.70
2019-02-25T08:21:57.600Z,16.65
2019-02-25T08:27:26.546Z,14.53
2019-02-25T08:32:51.801Z,14.65
2019-02-25T08:38:28.610Z,13.80
2019-02-25T08:43:51.159Z,15.60
2019-02-25T08:49:00.655Z,16.70
2019-02-25T08:54:03.817Z,16.48
2019-02-25T08:59:06.884Z,15.15
2019-02-25T09:04:09.933Z,13.90
2019-02-25T09:09:13.230Z,11.90
2019-02-25T09:14:16.701Z,15.68
2019-02-25T09:19:19.848Z,16.90
2019-02-25T09:24:23.169Z,14.00
2019-02-25T09:29:26.472Z,15.38
2019-02-25T09:34:29.417Z,13.60
2019-02-25T09:39:32.693Z,15.25
2019-02-25T09:44:37.760Z,15.08
2019-02-25T09:49:40.915Z,15.95
2019-02-25T09:54:43.921Z,15.63
2019-02-25T09:59:47.047Z,15.95
2019-02-25T10:04:50.314Z,16.60
2019-02-25T10:09:53.254Z,14.43
2019-02-25T10:14:56.285Z,16.52
2019-02-25T10:19:59.289Z,15.78
2019-02-25T10:25:02.528Z,12.68
2019-02-25T10:30:07.927Z,16.23
2019-02-25T10:35:12.177Z,16.17
2019-02-25T10:40:18.132Z,14.23
2019-02-25T10:45:20.805Z,15.63
2019-02-25T10:50:23.752Z,13.95
2019-02-25T10:55:34.245Z,16.25
2019-02-25T11:00:39.438Z,15.75
2019-02-25T11:05:42.750Z,14.05
2019-02-25T11:11:05.366Z,15.05
2019-02-25T11:16:09.787Z,15.85
2019-02-25T11:21:13.415Z,14.63
2019-02-25T11:26:16.390Z,15.98
2019-02-25T11:31:22.852Z,16.15
2019-02-25T11:36:25.124Z,15.93
2019-02-25T11:41:29.679Z,14.70
2019-02-25T11:46:32.968Z,15.83
2019-02-25T11:51:36.358Z,14.20
2019-02-25T11:56:39.371Z,15.28
2019-02-25T12:01:42.416Z,14.68
2019-02-25T12:06:45.430Z,15.20
2019-02-25T12:11:48.561Z,11.90
2019-02-25T12:16:51.765Z,16.62
2019-02-25T12:21:54.733Z,14.25
2019-02-25T12:26:57.820Z,14.65
2019-02-25T12:32:00.915Z,15.78
2019-02-25T12:37:04.118Z,12.95
2019-02-25T12:42:07.091Z,15.45
2019-02-25T12:47:10.306Z,15.48
2019-02-25T12:52:14.161Z,13.62
2019-02-25T12:57:17.105Z,13.70
2019-02-25T13:02:20.223Z,17.65
2019-02-25T13:07:23.204Z,16.62
2019-02-25T13:12:26.775Z,16.95
2019-02-25T13:17:29.745Z,17.30
2019-02-25T13:22:32.732Z,17.55
2019-02-25T13:27:36.366Z,16.32
2019-02-25T13:32:39.337Z,17.82
2019-02-25T13:37:42.811Z,16.73
2019-02-25T13:42:45.963Z,15.83
2019-02-25T13:47:49.278Z,13.98
2019-02-25T13:52:52.946Z,15.85
2019-02-25T13:57:57.618Z,13.93
2019-02-25T14:03:03.199Z,16.02
2019-02-25T14:08:05.870Z,14.80
2019-02-25T14:13:09.306Z,12.98
2019-02-25T14:18:12.346Z,14.63
2019-02-25T14:23:16.107Z,14.28
2019-02-25T14:28:19.252Z,15.88
2019-02-25T14:33:23.637Z,13.90
2019-02-25T14:38:27.647Z,15.32
2019-02-25T14:43:36.704Z,15.13
2019-02-25T14:48:36.963Z,14.78
2019-02-25T14:53:41.756Z,14.63
2019-02-25T14:58:46.081Z,13.65
2019-02-25T15:03:50.164Z,14.95
2019-02-25T15:08:53.156Z,13.28
2019-02-25T15:13:56.748Z,14.30
2019-02-25T15:19:00.667Z,15.53
2019-02-25T15:24:06.219Z,13.80
2019-02-25T15:29:09.402Z,16.32
2019-02-25T15:34:13.049Z,16.20
2019-02-25T15:39:17.635Z,16.73
2019-02-25T15:44:20.937Z,14.65
2019-02-25T15:49:26.077Z,16.50
2019-02-25T15:54:32.729Z,17.07
2019-02-25T15:59:34.400Z,17.35
2019-02-25T16:04:38.671Z,21.23
2019-02-25T16:09:42.906Z,17.10
2019-02-25T16:14:47.062Z,19.45
2019-02-25T16:19:53.459Z,18.95
2019-02-25T16:24:56.357Z,19.45
2019-02-25T16:30:00.220Z,17.57
2019-02-25T16:35:07.167Z,17.77
2019-02-25T16:40:10.827Z,18.55
2019-02-25T16:45:16.654Z,18.35
2019-02-25T16:50:21.097Z,18.60
2019-02-25T16:55:25.765Z,18.55
2019-02-25T17:00:31.924Z,17.60
2019-02-25T17:05:37.332Z,19.65
2019-02-25T17:10:39.817Z,18.75
2019-02-25T17:15:46.010Z,19.17
2019-02-25T17:20:50.428Z,18.20
2019-02-25T17:25:53.478Z,21.27
2019-02-25T17:30:56.733Z,19.73
2019-02-25T17:35:59.928Z,21.40
2019-02-25T17:41:04.112Z,22.80
2019-02-25T17:46:09.250Z,19.70
2019-02-25T17:51:13.064Z,21.57
2019-02-25T17:56:17.935Z,21.93
2019-02-25T18:01:22.038Z,20.10
2019-02-25T18:06:30.144Z,21.40
2019-02-25T18:11:31.156Z,19.98
2019-02-25T18:16:35.376Z,21.93
2019-02-25T18:21:43.023Z,22.02
2019-02-25T18:26:47.032Z,22.98
2019-02-25T18:31:50.175Z,26.80
2019-02-25T18:36:55.330Z,28.53
2019-02-25T18:41:58.464Z,30.32
2019-02-25T18:47:01.649Z,34.43
2019-02-25T18:52:05.357Z,31.30
2019-02-25T18:57:08.376Z,33.28
2019-02-25T19:02:12.725Z,34.63
2019-02-25T19:07:16.484Z,33.08
2019-02-25T19:12:19.600Z,35.58
2019-02-25T19:17:23.248Z,32.05
2019-02-25T19:22:29.408Z,31.63
2019-02-25T19:27:33.732Z,34.13
2019-02-25T19:32:39.917Z,27.23
2019-02-25T19:37:44.429Z,26.50
2019-02-25T19:42:51.356Z,33.00
2019-02-25T19:47:55.377Z,32.20
2019-02-25T19:53:02.543Z,34.92
2019-02-25T19:58:03.964Z,36.38
2019-02-25T20:03:07.334Z,34.38
2019-02-25T20:08:10.912Z,35.90
2019-02-25T20:13:14.171Z,29.25
2019-02-25T20:18:18.392Z,36.77
2019-02-25T20:23:24.411Z,34.48
2019-02-25T20:28:27.368Z,34.35
2019-02-25T20:33:32.977Z,33.95
2019-02-25T20:38:37.261Z,36.25
2019-02-25T20:43:40.788Z,31.90
2019-02-25T20:48:46.493Z,31.73
2019-02-25T20:53:50.703Z,35.68
2019-02-25T20:58:54.057Z,33.48
2019-02-25T21:03:58.948Z,31.70
2019-02-25T21:09:02.466Z,30.37
2019-02-25T21:14:07.443Z,33.78
2019-02-25T21:19:12.578Z,32.45
2019-02-25T21:24:15.697Z,30.82
2019-02-25T21:29:18.749Z,31.48
2019-02-25T21:34:24.410Z,32.25
2019-02-25T21:39:27.330Z,32.05
2019-02-25T21:44:31.545Z,33.23
2019-02-25T21:49:36.476Z,30.90
2019-02-25T21:54:39.956Z,30.80
2019-02-25T21:59:42.993Z,30.80
2019-02-25T22:04:48.129Z,30.12
2019-02-25T22:09:51.475Z,29.77
2019-02-25T22:14:54.531Z,31.35
2019-02-25T22:19:58.083Z,31.07
2019-02-25T22:25:05.862Z,28.65
2019-02-25T22:30:09.647Z,31.90
2019-02-25T22:35:15.121Z,29.57
2019-02-25T22:40:18.551Z,28.20
2019-02-25T22:45:21.689Z,30.02
2019-02-25T22:50:24.686Z,27.20
2019-02-25T22:55:28.121Z,26.62
2019-02-25T23:00:45.274Z,25.60
2019-02-25T23:05:50.339Z,26.20
2019-02-25T23:10:54.143Z,23.27
2019-02-25T23:15:57.867Z,25.82
2019-02-25T23:21:03.070Z,26.17
2019-02-25T23:26:06.549Z,25.67
2019-02-25T23:31:09.615Z,24.25
2019-02-25T23:36:14.824Z,27.17
2019-02-25T23:41:17.677Z,25.85
2019-02-25T23:46:25.205Z,24.50
2019-02-25T23:51:25.883Z,27.58
2019-02-25T23:56:29.644Z,26.42
